sensor_id;sensor_type;location;lat;lon;timestamp;temperature;humidity
7388;DHT22;3735;50.136;11.062;2024-03-08T00:00:05;-0.80;99.90
7388;DHT22;3735;50.136;11.062;2024-03-08T00:02:36;-0.90;99.90
7388;DHT22;3735;50.136;11.062;2024-03-08T00:05:03;-0.90;99.90
7388;DHT22;3735;50.136;11.062;2024-03-08T00:07:30;-1.00;99.90
7388;DHT22;3735;50.136;11.062;2024-03-08T00:09:56;-1.10;99.90
7388;DHT22;3735;50.136;11.062;2024-03-08T00:12:22;-1.20;99.90
7388;DHT22;3735;50.136;11.062;2024-03-08T00:14:47;-1.20;99.90
7388;DHT22;3735;50.136;11.062;2024-03-08T00:17:13;-1.30;99.90
7388;DHT22;3735;50.136;11.062;2024-03-08T00:19:41;-1.30;99.90
7388;DHT22;3735;50.136;11.062;2024-03-08T00:22:07;-1.30;99.90
7388;DHT22;3735;50.136;11.062;2024-03-08T00:24:33;-1.40;99.90
7388;DHT22;3735;50.136;11.062;2024-03-08T00:26:59;-1.40;99.90
7388;DHT22;3735;50.136;11.062;2024-03-08T00:29:25;-1.30;99.90
7388;DHT22;3735;50.136;11.062;2024-03-08T00:31:50;-1.30;99.90
7388;DHT22;3735;50.136;11.062;2024-03-08T00:34:16;-1.30;99.90
7388;DHT22;3735;50.136;11.062;2024-03-08T00:36:42;-1.30;99.90
7388;DHT22;3735;50.136;11.062;2024-03-08T00:39:07;-1.30;99.90
7388;DHT22;3735;50.136;11.062;2024-03-08T00:41:33;-1.30;99.90
7388;DHT22;3735;50.136;11.062;2024-03-08T00:43:59;-1.30;99.90
7388;DHT22;3735;50.136;11.062;2024-03-08T00:46:25;-1.30;99.90
7388;DHT22;3735;50.136;11.062;2024-03-08T00:48:53;-1.30;99.90
7388;DHT22;3735;50.136;11.062;2024-03-08T00:51:18;-1.30;99.90
7388;DHT22;3735;50.136;11.062;2024-03-08T00:53:44;-1.40;99.90
7388;DHT22;3735;50.136;11.062;2024-03-08T00:56:10;-1.40;99.90
7388;DHT22;3735;50.136;11.062;2024-03-08T00:58:36;-1.40;99.90
7388;DHT22;3735;50.136;11.062;2024-03-08T01:01:03;-1.40;99.90
7388;DHT22;3735;50.136;11.062;2024-03-08T01:03:30;-1.50;99.90
7388;DHT22;3735;50.136;11.062;2024-03-08T01:06:00;-1.50;99.90
7388;DHT22;3735;50.136;11.062;2024-03-08T01:08:29;-1.50;99.90
7388;DHT22;3735;50.136;11.062;2024-03-08T01:10:55;-1.50;99.90
7388;DHT22;3735;50.136;11.062;2024-03-08T01:13:21;-1.50;99.90
7388;DHT22;3735;50.136;11.062;2024-03-08T01:15:47;-1.50;99.90
7388;DHT22;3735;50.136;11.062;2024-03-08T01:18:12;-1.50;99.90
7388;DHT22;3735;50.136;11.062;2024-03-08T01:20:38;-1.50;99.90
7388;DHT22;3735;50.136;11.062;2024-03-08T01:23:05;-1.50;99.90
7388;DHT22;3735;50.136;11.062;2024-03-08T01:25:33;-1.40;99.90
7388;DHT22;3735;50.136;11.062;2024-03-08T01:27:59;-1.30;99.90
7388;DHT22;3735;50.136;11.062;2024-03-08T01:30:25;-1.30;99.90
7388;DHT22;3735;50.136;11.062;2024-03-08T01:32:51;-1.30;99.90
7388;DHT22;3735;50.136;11.062;2024-03-08T01:35:16;-1.30;99.90
7388;DHT22;3735;50.136;11.062;2024-03-08T01:37:43;-1.30;99.90
7388;DHT22;3735;50.136;11.062;2024-03-08T01:40:09;-1.30;99.90
7388;DHT22;3735;50.136;11.062;2024-03-08T01:42:35;-1.30;99.90
7388;DHT22;3735;50.136;11.062;2024-03-08T01:45:07;-1.30;99.90
7388;DHT22;3735;50.136;11.062;2024-03-08T01:47:34;-1.40;99.90
7388;DHT22;3735;50.136;11.062;2024-03-08T01:50:02;-1.40;99.90
7388;DHT22;3735;50.136;11.062;2024-03-08T01:52:32;-1.30;99.90
7388;DHT22;3735;50.136;11.062;2024-03-08T01:55:03;-1.30;99.90
7388;DHT22;3735;50.136;11.062;2024-03-08T01:57:32;-1.30;99.90
7388;DHT22;3735;50.136;11.062;2024-03-08T02:00:00;-1.40;99.90
7388;DHT22;3735;50.136;11.062;2024-03-08T02:02:33;-1.30;99.90
7388;DHT22;3735;50.136;11.062;2024-03-08T02:05:01;-1.30;99.90
7388;DHT22;3735;50.136;11.062;2024-03-08T02:07:27;-1.40;99.90
7388;DHT22;3735;50.136;11.062;2024-03-08T02:09:52;-1.40;99.90
7388;DHT22;3735;50.136;11.062;2024-03-08T02:12:18;-1.40;99.90
7388;DHT22;3735;50.136;11.062;2024-03-08T02:14:46;-1.30;99.90
7388;DHT22;3735;50.136;11.062;2024-03-08T02:17:12;-1.30;99.90
7388;DHT22;3735;50.136;11.062;2024-03-08T02:19:38;-1.40;99.90
7388;DHT22;3735;50.136;11.062;2024-03-08T02:22:05;-1.50;99.90
7388;DHT22;3735;50.136;11.062;2024-03-08T02:24:32;-1.50;99.90
7388;DHT22;3735;50.136;11.062;2024-03-08T02:26:58;-1.50;99.90
7388;DHT22;3735;50.136;11.062;2024-03-08T02:29:24;-1.50;99.90
7388;DHT22;3735;50.136;11.062;2024-03-08T02:31:53;-1.60;99.90
7388;DHT22;3735;50.136;11.062;2024-03-08T02:34:21;-1.60;99.90
7388;DHT22;3735;50.136;11.062;2024-03-08T02:36:46;-1.70;99.90
7388;DHT22;3735;50.136;11.062;2024-03-08T02:39:12;-1.70;99.90
7388;DHT22;3735;50.136;11.062;2024-03-08T02:41:38;-1.70;99.90
7388;DHT22;3735;50.136;11.062;2024-03-08T02:44:04;-1.70;99.90
7388;DHT22;3735;50.136;11.062;2024-03-08T02:46:30;-1.80;99.90
7388;DHT22;3735;50.136;11.062;2024-03-08T02:48:56;-1.80;99.90
7388;DHT22;3735;50.136;11.062;2024-03-08T02:51:22;-1.80;99.90
7388;DHT22;3735;50.136;11.062;2024-03-08T02:53:47;-1.90;99.90
7388;DHT22;3735;50.136;11.062;2024-03-08T02:56:14;-2.00;99.90
7388;DHT22;3735;50.136;11.062;2024-03-08T02:58:42;-2.10;99.90
7388;DHT22;3735;50.136;11.062;2024-03-08T03:01:09;-2.10;99.90
7388;DHT22;3735;50.136;11.062;2024-03-08T03:03:36;-2.10;99.90
7388;DHT22;3735;50.136;11.062;2024-03-08T03:06:02;-2.20;99.90
7388;DHT22;3735;50.136;11.062;2024-03-08T03:08:28;-2.10;99.90
7388;DHT22;3735;50.136;11.062;2024-03-08T03:10:53;-2.10;99.90
7388;DHT22;3735;50.136;11.062;2024-03-08T03:13:22;-2.20;99.90
7388;DHT22;3735;50.136;11.062;2024-03-08T03:15:48;-2.30;99.90
7388;DHT22;3735;50.136;11.062;2024-03-08T03:18:14;-2.40;99.90
7388;DHT22;3735;50.136;11.062;2024-03-08T03:20:41;-2.50;99.90
7388;DHT22;3735;50.136;11.062;2024-03-08T03:23:08;-2.60;99.90
7388;DHT22;3735;50.136;11.062;2024-03-08T03:25:35;-2.60;99.90
7388;DHT22;3735;50.136;11.062;2024-03-08T03:28:02;-2.50;99.90
7388;DHT22;3735;50.136;11.062;2024-03-08T03:30:28;-2.50;99.90
7388;DHT22;3735;50.136;11.062;2024-03-08T03:32:59;-2.50;99.90
7388;DHT22;3735;50.136;11.062;2024-03-08T03:35:27;-2.60;99.90
7388;DHT22;3735;50.136;11.062;2024-03-08T03:37:54;-2.60;99.90
7388;DHT22;3735;50.136;11.062;2024-03-08T03:40:33;-2.70;99.90
7388;DHT22;3735;50.136;11.062;2024-03-08T03:42:59;-2.70;99.90
7388;DHT22;3735;50.136;11.062;2024-03-08T03:45:26;-2.70;99.90
7388;DHT22;3735;50.136;11.062;2024-03-08T03:47:52;-2.60;99.90
7388;DHT22;3735;50.136;11.062;2024-03-08T03:50:19;-2.70;99.90
7388;DHT22;3735;50.136;11.062;2024-03-08T03:52:48;-2.60;99.90
7388;DHT22;3735;50.136;11.062;2024-03-08T03:55:15;-2.60;99.90
7388;DHT22;3735;50.136;11.062;2024-03-08T03:57:41;-2.50;99.90
7388;DHT22;3735;50.136;11.062;2024-03-08T04:00:07;-2.50;99.90
7388;DHT22;3735;50.136;11.062;2024-03-08T04:02:37;-2.50;99.90
7388;DHT22;3735;50.136;11.062;2024-03-08T04:05:10;-2.60;99.90
7388;DHT22;3735;50.136;11.062;2024-03-08T04:07:37;-2.60;99.90
7388;DHT22;3735;50.136;11.062;2024-03-08T04:10:06;-2.60;99.90
7388;DHT22;3735;50.136;11.062;2024-03-08T04:12:34;-2.50;99.90
7388;DHT22;3735;50.136;11.062;2024-03-08T04:15:00;-2.40;99.90
7388;DHT22;3735;50.136;11.062;2024-03-08T04:17:26;-2.30;99.90
7388;DHT22;3735;50.136;11.062;2024-03-08T04:19:52;-2.20;99.90
7388;DHT22;3735;50.136;11.062;2024-03-08T04:22:19;-2.10;99.90
7388;DHT22;3735;50.136;11.062;2024-03-08T04:24:46;-2.00;99.90
7388;DHT22;3735;50.136;11.062;2024-03-08T04:27:12;-1.80;99.90
7388;DHT22;3735;50.136;11.062;2024-03-08T04:29:39;-1.60;99.90
7388;DHT22;3735;50.136;11.062;2024-03-08T04:32:07;-1.60;99.90
7388;DHT22;3735;50.136;11.062;2024-03-08T04:34:34;-1.50;99.90
7388;DHT22;3735;50.136;11.062;2024-03-08T04:37:00;-1.60;99.90
7388;DHT22;3735;50.136;11.062;2024-03-08T04:39:27;-1.70;99.90
7388;DHT22;3735;50.136;11.062;2024-03-08T04:41:59;-1.70;99.90
7388;DHT22;3735;50.136;11.062;2024-03-08T04:44:28;-1.90;99.90
7388;DHT22;3735;50.136;11.062;2024-03-08T04:46:55;-2.10;99.90
7388;DHT22;3735;50.136;11.062;2024-03-08T04:49:21;-2.20;99.90
7388;DHT22;3735;50.136;11.062;2024-03-08T04:51:48;-2.30;99.90
7388;DHT22;3735;50.136;11.062;2024-03-08T04:54:13;-2.40;99.90
7388;DHT22;3735;50.136;11.062;2024-03-08T04:56:39;-2.20;99.90
7388;DHT22;3735;50.136;11.062;2024-03-08T04:59:05;-2.10;99.90
7388;DHT22;3735;50.136;11.062;2024-03-08T05:01:33;-2.10;99.90
7388;DHT22;3735;50.136;11.062;2024-03-08T05:04:01;-2.10;99.90
7388;DHT22;3735;50.136;11.062;2024-03-08T05:06:27;-2.10;99.90
7388;DHT22;3735;50.136;11.062;2024-03-08T05:08:54;-2.10;99.90
7388;DHT22;3735;50.136;11.062;2024-03-08T05:11:20;-2.10;99.90
7388;DHT22;3735;50.136;11.062;2024-03-08T05:13:45;-2.10;99.90
7388;DHT22;3735;50.136;11.062;2024-03-08T05:16:11;-2.00;99.90
7388;DHT22;3735;50.136;11.062;2024-03-08T05:18:41;-2.00;99.90
7388;DHT22;3735;50.136;11.062;2024-03-08T05:21:07;-1.90;99.90
7388;DHT22;3735;50.136;11.062;2024-03-08T05:23:34;-1.90;99.90
7388;DHT22;3735;50.136;11.062;2024-03-08T05:26:00;-1.80;99.90
7388;DHT22;3735;50.136;11.062;2024-03-08T05:28:26;-1.80;99.90
7388;DHT22;3735;50.136;11.062;2024-03-08T05:30:52;-1.80;99.90
7388;DHT22;3735;50.136;11.062;2024-03-08T05:33:18;-1.80;99.90
7388;DHT22;3735;50.136;11.062;2024-03-08T05:35:44;-1.80;99.90
7388;DHT22;3735;50.136;11.062;2024-03-08T05:38:10;-1.70;99.90
7388;DHT22;3735;50.136;11.062;2024-03-08T05:40:38;-1.80;99.90
7388;DHT22;3735;50.136;11.062;2024-03-08T05:43:04;-1.80;99.90
7388;DHT22;3735;50.136;11.062;2024-03-08T05:45:30;-1.90;99.90
7388;DHT22;3735;50.136;11.062;2024-03-08T05:47:56;-1.90;99.90
7388;DHT22;3735;50.136;11.062;2024-03-08T05:50:22;-1.90;99.90
7388;DHT22;3735;50.136;11.062;2024-03-08T05:52:48;-2.00;99.90
7388;DHT22;3735;50.136;11.062;2024-03-08T05:55:15;-2.00;99.90
7388;DHT22;3735;50.136;11.062;2024-03-08T05:57:41;-2.00;99.90
7388;DHT22;3735;50.136;11.062;2024-03-08T06:00:08;-2.00;99.90
7388;DHT22;3735;50.136;11.062;2024-03-08T06:02:38;-2.10;99.90
7388;DHT22;3735;50.136;11.062;2024-03-08T06:05:10;-2.10;99.90
7388;DHT22;3735;50.136;11.062;2024-03-08T06:07:37;-2.10;99.90
7388;DHT22;3735;50.136;11.062;2024-03-08T06:10:10;-2.10;99.90
7388;DHT22;3735;50.136;11.062;2024-03-08T06:12:40;-2.00;99.90
7388;DHT22;3735;50.136;11.062;2024-03-08T06:15:09;-1.80;99.90
7388;DHT22;3735;50.136;11.062;2024-03-08T06:17:39;-1.60;99.90
7388;DHT22;3735;50.136;11.062;2024-03-08T06:20:06;-1.40;99.90
7388;DHT22;3735;50.136;11.062;2024-03-08T06:22:39;-1.40;99.90
7388;DHT22;3735;50.136;11.062;2024-03-08T06:25:07;-1.20;99.90
7388;DHT22;3735;50.136;11.062;2024-03-08T06:27:33;-1.10;99.90
7388;DHT22;3735;50.136;11.062;2024-03-08T06:30:00;-1.00;99.90
7388;DHT22;3735;50.136;11.062;2024-03-08T06:32:26;-0.90;99.90
7388;DHT22;3735;50.136;11.062;2024-03-08T06:34:52;-0.90;99.90
7388;DHT22;3735;50.136;11.062;2024-03-08T06:37:17;-0.80;99.90
7388;DHT22;3735;50.136;11.062;2024-03-08T06:39:48;-0.70;99.90
7388;DHT22;3735;50.136;11.062;2024-03-08T06:42:14;-0.70;99.90
7388;DHT22;3735;50.136;11.062;2024-03-08T06:44:39;-0.70;99.90
7388;DHT22;3735;50.136;11.062;2024-03-08T06:47:14;-0.60;99.90
7388;DHT22;3735;50.136;11.062;2024-03-08T06:49:43;-0.70;99.90
7388;DHT22;3735;50.136;11.062;2024-03-08T06:52:10;-0.60;99.90
7388;DHT22;3735;50.136;11.062;2024-03-08T06:54:36;-0.60;99.90
7388;DHT22;3735;50.136;11.062;2024-03-08T06:57:03;-0.40;99.90
7388;DHT22;3735;50.136;11.062;2024-03-08T06:59:30;-0.20;99.90
7388;DHT22;3735;50.136;11.062;2024-03-08T07:01:56;0.00;99.90
7388;DHT22;3735;50.136;11.062;2024-03-08T07:04:25;0.30;99.90
7388;DHT22;3735;50.136;11.062;2024-03-08T07:06:55;0.50;99.90
7388;DHT22;3735;50.136;11.062;2024-03-08T07:09:22;0.70;99.90
7388;DHT22;3735;50.136;11.062;2024-03-08T07:11:47;0.90;99.90
7388;DHT22;3735;50.136;11.062;2024-03-08T07:14:23;1.10;99.90
7388;DHT22;3735;50.136;11.062;2024-03-08T07:16:49;1.20;99.90
7388;DHT22;3735;50.136;11.062;2024-03-08T07:19:16;1.40;99.90
7388;DHT22;3735;50.136;11.062;2024-03-08T07:21:43;1.50;99.90
7388;DHT22;3735;50.136;11.062;2024-03-08T07:24:10;1.60;99.90
7388;DHT22;3735;50.136;11.062;2024-03-08T07:26:43;1.70;99.90
7388;DHT22;3735;50.136;11.062;2024-03-08T07:29:09;1.90;99.90
7388;DHT22;3735;50.136;11.062;2024-03-08T07:31:35;2.00;99.90
7388;DHT22;3735;50.136;11.062;2024-03-08T07:34:03;2.20;99.90
7388;DHT22;3735;50.136;11.062;2024-03-08T07:36:33;2.50;99.90
7388;DHT22;3735;50.136;11.062;2024-03-08T07:39:00;2.70;99.90
7388;DHT22;3735;50.136;11.062;2024-03-08T07:41:26;3.00;99.90
7388;DHT22;3735;50.136;11.062;2024-03-08T07:43:53;3.30;99.90
7388;DHT22;3735;50.136;11.062;2024-03-08T07:46:18;3.90;99.90
7388;DHT22;3735;50.136;11.062;2024-03-08T07:48:44;4.50;99.90
7388;DHT22;3735;50.136;11.062;2024-03-08T07:51:10;6.30;99.90
7388;DHT22;3735;50.136;11.062;2024-03-08T07:53:37;8.30;99.90
7388;DHT22;3735;50.136;11.062;2024-03-08T07:56:04;9.80;99.90
7388;DHT22;3735;50.136;11.062;2024-03-08T07:58:30;10.80;99.90
7388;DHT22;3735;50.136;11.062;2024-03-08T08:00:56;11.40;99.90
7388;DHT22;3735;50.136;11.062;2024-03-08T08:03:22;12.10;99.90
7388;DHT22;3735;50.136;11.062;2024-03-08T08:05:48;12.50;99.90
7388;DHT22;3735;50.136;11.062;2024-03-08T08:08:14;12.50;99.90
7388;DHT22;3735;50.136;11.062;2024-03-08T08:10:40;12.50;99.90
7388;DHT22;3735;50.136;11.062;2024-03-08T08:13:06;12.50;99.90
7388;DHT22;3735;50.136;11.062;2024-03-08T08:15:32;12.70;99.90
7388;DHT22;3735;50.136;11.062;2024-03-08T08:18:01;12.60;99.90
7388;DHT22;3735;50.136;11.062;2024-03-08T08:20:28;13.00;99.90
7388;DHT22;3735;50.136;11.062;2024-03-08T08:22:54;13.50;99.90
7388;DHT22;3735;50.136;11.062;2024-03-08T08:25:21;13.30;99.90
7388;DHT22;3735;50.136;11.062;2024-03-08T08:27:49;13.70;99.90
7388;DHT22;3735;50.136;11.062;2024-03-08T08:30:15;13.50;99.90
7388;DHT22;3735;50.136;11.062;2024-03-08T08:32:41;13.20;99.90
7388;DHT22;3735;50.136;11.062;2024-03-08T08:35:10;12.50;99.90
7388;DHT22;3735;50.136;11.062;2024-03-08T08:37:39;13.10;99.90
7388;DHT22;3735;50.136;11.062;2024-03-08T08:40:05;12.70;99.90
7388;DHT22;3735;50.136;11.062;2024-03-08T08:42:36;12.80;99.90
7388;DHT22;3735;50.136;11.062;2024-03-08T08:45:05;13.30;99.90
7388;DHT22;3735;50.136;11.062;2024-03-08T08:47:37;13.70;99.90
7388;DHT22;3735;50.136;11.062;2024-03-08T08:50:04;14.50;99.90
7388;DHT22;3735;50.136;11.062;2024-03-08T08:52:33;15.00;99.90
7388;DHT22;3735;50.136;11.062;2024-03-08T08:55:00;15.20;99.90
7388;DHT22;3735;50.136;11.062;2024-03-08T08:57:26;15.00;99.90
7388;DHT22;3735;50.136;11.062;2024-03-08T08:59:53;15.40;99.90
7388;DHT22;3735;50.136;11.062;2024-03-08T09:02:19;15.60;99.90
7388;DHT22;3735;50.136;11.062;2024-03-08T09:04:46;15.70;99.90
7388;DHT22;3735;50.136;11.062;2024-03-08T09:07:15;15.50;99.90
7388;DHT22;3735;50.136;11.062;2024-03-08T09:09:44;15.00;99.90
7388;DHT22;3735;50.136;11.062;2024-03-08T09:12:10;15.20;99.90
7388;DHT22;3735;50.136;11.062;2024-03-08T09:14:40;16.00;99.90
7388;DHT22;3735;50.136;11.062;2024-03-08T09:17:07;16.80;99.90
7388;DHT22;3735;50.136;11.062;2024-03-08T09:19:36;17.00;99.90
7388;DHT22;3735;50.136;11.062;2024-03-08T09:22:02;16.20;99.90
7388;DHT22;3735;50.136;11.062;2024-03-08T09:24:30;16.00;99.90
7388;DHT22;3735;50.136;11.062;2024-03-08T09:26:56;16.10;99.90
7388;DHT22;3735;50.136;11.062;2024-03-08T09:29:24;15.80;99.90
7388;DHT22;3735;50.136;11.062;2024-03-08T09:31:50;16.20;99.90
7388;DHT22;3735;50.136;11.062;2024-03-08T09:34:17;16.80;99.90
7388;DHT22;3735;50.136;11.062;2024-03-08T09:36:44;16.90;99.90
7388;DHT22;3735;50.136;11.062;2024-03-08T09:39:10;16.60;99.90
7388;DHT22;3735;50.136;11.062;2024-03-08T09:41:42;16.40;99.90
7388;DHT22;3735;50.136;11.062;2024-03-08T09:44:09;17.10;99.90
7388;DHT22;3735;50.136;11.062;2024-03-08T09:46:35;17.50;99.90
7388;DHT22;3735;50.136;11.062;2024-03-08T09:49:01;18.20;99.90
7388;DHT22;3735;50.136;11.062;2024-03-08T09:51:33;18.70;99.90
7388;DHT22;3735;50.136;11.062;2024-03-08T09:54:03;18.50;99.90
7388;DHT22;3735;50.136;11.062;2024-03-08T09:56:32;19.30;99.90
7388;DHT22;3735;50.136;11.062;2024-03-08T09:59:01;19.40;99.90
7388;DHT22;3735;50.136;11.062;2024-03-08T10:01:37;19.20;99.90
7388;DHT22;3735;50.136;11.062;2024-03-08T10:04:04;18.80;99.90
7388;DHT22;3735;50.136;11.062;2024-03-08T10:06:30;17.70;99.90
7388;DHT22;3735;50.136;11.062;2024-03-08T10:08:59;17.70;99.90
7388;DHT22;3735;50.136;11.062;2024-03-08T10:11:26;17.90;99.90
7388;DHT22;3735;50.136;11.062;2024-03-08T10:13:52;19.10;99.90
7388;DHT22;3735;50.136;11.062;2024-03-08T10:16:18;19.80;99.90
7388;DHT22;3735;50.136;11.062;2024-03-08T10:18:45;20.60;99.90
7388;DHT22;3735;50.136;11.062;2024-03-08T10:21:12;20.80;99.90
7388;DHT22;3735;50.136;11.062;2024-03-08T10:23:39;20.50;99.90
7388;DHT22;3735;50.136;11.062;2024-03-08T10:26:14;19.80;99.90
7388;DHT22;3735;50.136;11.062;2024-03-08T10:28:45;19.30;99.90
7388;DHT22;3735;50.136;11.062;2024-03-08T10:31:13;19.40;99.90
7388;DHT22;3735;50.136;11.062;2024-03-08T10:33:41;20.20;99.90
7388;DHT22;3735;50.136;11.062;2024-03-08T10:36:08;20.30;99.90
7388;DHT22;3735;50.136;11.062;2024-03-08T10:38:41;20.60;99.90
7388;DHT22;3735;50.136;11.062;2024-03-08T10:41:12;21.00;99.90
7388;DHT22;3735;50.136;11.062;2024-03-08T10:49:39;22.60;99.90
7388;DHT22;3735;50.136;11.062;2024-03-08T10:52:16;22.50;99.90
7388;DHT22;3735;50.136;11.062;2024-03-08T10:54:45;22.60;99.90
7388;DHT22;3735;50.136;11.062;2024-03-08T10:57:14;23.10;99.90
7388;DHT22;3735;50.136;11.062;2024-03-08T10:59:43;22.80;99.90
7388;DHT22;3735;50.136;11.062;2024-03-08T11:02:12;23.20;99.90
7388;DHT22;3735;50.136;11.062;2024-03-08T11:04:38;23.70;99.90
7388;DHT22;3735;50.136;11.062;2024-03-08T11:07:04;23.50;99.90
7388;DHT22;3735;50.136;11.062;2024-03-08T11:09:36;23.30;99.90
7388;DHT22;3735;50.136;11.062;2024-03-08T11:12:21;23.10;99.90
7388;DHT22;3735;50.136;11.062;2024-03-08T11:14:55;22.80;99.90
7388;DHT22;3735;50.136;11.062;2024-03-08T11:19:58;21.80;99.90
7388;DHT22;3735;50.136;11.062;2024-03-08T11:22:32;22.10;99.90
7388;DHT22;3735;50.136;11.062;2024-03-08T11:25:06;22.10;99.90
7388;DHT22;3735;50.136;11.062;2024-03-08T11:27:36;22.00;99.90
7388;DHT22;3735;50.136;11.062;2024-03-08T11:30:06;22.20;99.90
7388;DHT22;3735;50.136;11.062;2024-03-08T11:32:37;22.60;99.90
7388;DHT22;3735;50.136;11.062;2024-03-08T11:35:07;22.90;99.90
7388;DHT22;3735;50.136;11.062;2024-03-08T11:37:43;22.30;99.90
7388;DHT22;3735;50.136;11.062;2024-03-08T11:40:13;21.60;99.90
7388;DHT22;3735;50.136;11.062;2024-03-08T11:42:45;21.30;99.90
7388;DHT22;3735;50.136;11.062;2024-03-08T11:45:17;21.30;99.90
7388;DHT22;3735;50.136;11.062;2024-03-08T11:47:46;21.60;99.90
7388;DHT22;3735;50.136;11.062;2024-03-08T11:50:16;22.00;99.90
7388;DHT22;3735;50.136;11.062;2024-03-08T11:52:44;22.40;99.90
7388;DHT22;3735;50.136;11.062;2024-03-08T11:55:11;22.60;99.90
7388;DHT22;3735;50.136;11.062;2024-03-08T11:57:38;23.00;99.90
7388;DHT22;3735;50.136;11.062;2024-03-08T12:00:04;23.30;99.90
7388;DHT22;3735;50.136;11.062;2024-03-08T12:02:34;22.90;99.90
7388;DHT22;3735;50.136;11.062;2024-03-08T12:05:02;21.70;99.90
7388;DHT22;3735;50.136;11.062;2024-03-08T12:07:35;21.40;99.90
7388;DHT22;3735;50.136;11.062;2024-03-08T12:10:21;21.10;99.90
7388;DHT22;3735;50.136;11.062;2024-03-08T12:12:50;21.40;99.90
7388;DHT22;3735;50.136;11.062;2024-03-08T12:15:18;21.40;99.90
7388;DHT22;3735;50.136;11.062;2024-03-08T12:17:47;22.10;99.90
7388;DHT22;3735;50.136;11.062;2024-03-08T12:20:21;22.50;99.90
7388;DHT22;3735;50.136;11.062;2024-03-08T12:22:53;22.70;99.90
7388;DHT22;3735;50.136;11.062;2024-03-08T12:25:22;21.90;99.90
7388;DHT22;3735;50.136;11.062;2024-03-08T12:27:48;21.40;99.90
7388;DHT22;3735;50.136;11.062;2024-03-08T12:30:22;22.10;99.90
7388;DHT22;3735;50.136;11.062;2024-03-08T12:32:57;22.40;99.90
7388;DHT22;3735;50.136;11.062;2024-03-08T12:35:26;22.40;99.90
7388;DHT22;3735;50.136;11.062;2024-03-08T12:37:57;22.90;99.90
7388;DHT22;3735;50.136;11.062;2024-03-08T12:40:28;23.00;99.90
7388;DHT22;3735;50.136;11.062;2024-03-08T12:42:59;22.80;99.90
7388;DHT22;3735;50.136;11.062;2024-03-08T12:45:27;23.10;99.90
7388;DHT22;3735;50.136;11.062;2024-03-08T12:47:54;22.90;99.90
7388;DHT22;3735;50.136;11.062;2024-03-08T12:50:21;22.50;99.90
7388;DHT22;3735;50.136;11.062;2024-03-08T12:52:48;21.30;99.90
7388;DHT22;3735;50.136;11.062;2024-03-08T12:55:15;20.50;99.90
7388;DHT22;3735;50.136;11.062;2024-03-08T12:57:42;20.20;99.90
7388;DHT22;3735;50.136;11.062;2024-03-08T13:00:08;20.10;99.90
7388;DHT22;3735;50.136;11.062;2024-03-08T13:02:48;19.90;99.90
7388;DHT22;3735;50.136;11.062;2024-03-08T13:05:16;20.50;99.90
7388;DHT22;3735;50.136;11.062;2024-03-08T13:07:43;21.20;99.90
7388;DHT22;3735;50.136;11.062;2024-03-08T13:10:14;21.30;99.90
7388;DHT22;3735;50.136;11.062;2024-03-08T13:12:44;21.70;99.90
7388;DHT22;3735;50.136;11.062;2024-03-08T13:15:10;21.90;99.90
7388;DHT22;3735;50.136;11.062;2024-03-08T13:17:41;21.90;99.90
7388;DHT22;3735;50.136;11.062;2024-03-08T13:20:08;22.50;99.90
7388;DHT22;3735;50.136;11.062;2024-03-08T13:22:35;22.80;99.90
7388;DHT22;3735;50.136;11.062;2024-03-08T13:25:02;22.50;99.90
7388;DHT22;3735;50.136;11.062;2024-03-08T13:27:28;21.40;99.90
7388;DHT22;3735;50.136;11.062;2024-03-08T13:29:54;21.50;99.90
7388;DHT22;3735;50.136;11.062;2024-03-08T13:32:20;21.80;99.90
7388;DHT22;3735;50.136;11.062;2024-03-08T13:34:46;22.30;99.90
7388;DHT22;3735;50.136;11.062;2024-03-08T13:37:17;22.60;99.90
7388;DHT22;3735;50.136;11.062;2024-03-08T13:39:43;22.10;99.90
7388;DHT22;3735;50.136;11.062;2024-03-08T13:42:15;21.80;99.90
7388;DHT22;3735;50.136;11.062;2024-03-08T13:44:48;21.30;99.90
7388;DHT22;3735;50.136;11.062;2024-03-08T13:47:18;21.30;99.90
7388;DHT22;3735;50.136;11.062;2024-03-08T13:49:44;21.70;99.90
7388;DHT22;3735;50.136;11.062;2024-03-08T13:52:10;21.00;99.90
7388;DHT22;3735;50.136;11.062;2024-03-08T13:54:38;20.90;99.90
7388;DHT22;3735;50.136;11.062;2024-03-08T13:57:04;20.70;99.90
7388;DHT22;3735;50.136;11.062;2024-03-08T13:59:31;20.30;99.90
7388;DHT22;3735;50.136;11.062;2024-03-08T14:02:01;20.20;99.90
7388;DHT22;3735;50.136;11.062;2024-03-08T14:04:28;20.10;99.90
7388;DHT22;3735;50.136;11.062;2024-03-08T14:06:54;20.40;99.90
7388;DHT22;3735;50.136;11.062;2024-03-08T14:09:24;20.60;99.90
7388;DHT22;3735;50.136;11.062;2024-03-08T14:11:55;20.40;99.90
7388;DHT22;3735;50.136;11.062;2024-03-08T14:14:21;20.30;99.90
7388;DHT22;3735;50.136;11.062;2024-03-08T14:16:50;20.30;99.90
7388;DHT22;3735;50.136;11.062;2024-03-08T14:19:23;20.70;99.90
7388;DHT22;3735;50.136;11.062;2024-03-08T14:21:49;21.00;99.90
7388;DHT22;3735;50.136;11.062;2024-03-08T14:24:18;20.80;99.90
7388;DHT22;3735;50.136;11.062;2024-03-08T14:26:45;20.70;99.90
7388;DHT22;3735;50.136;11.062;2024-03-08T14:29:14;20.50;99.90
7388;DHT22;3735;50.136;11.062;2024-03-08T14:31:40;20.70;99.90
7388;DHT22;3735;50.136;11.062;2024-03-08T14:34:08;20.50;99.90
7388;DHT22;3735;50.136;11.062;2024-03-08T14:36:34;19.90;99.90
7388;DHT22;3735;50.136;11.062;2024-03-08T14:39:00;20.20;99.90
7388;DHT22;3735;50.136;11.062;2024-03-08T14:41:26;20.20;99.90
7388;DHT22;3735;50.136;11.062;2024-03-08T14:43:52;19.60;99.90
7388;DHT22;3735;50.136;11.062;2024-03-08T14:46:19;19.90;99.90
7388;DHT22;3735;50.136;11.062;2024-03-08T14:48:55;19.80;99.90
7388;DHT22;3735;50.136;11.062;2024-03-08T14:51:23;19.20;99.90
7388;DHT22;3735;50.136;11.062;2024-03-08T14:53:54;19.30;99.90
7388;DHT22;3735;50.136;11.062;2024-03-08T14:56:21;19.90;99.90
7388;DHT22;3735;50.136;11.062;2024-03-08T14:58:48;20.10;99.90
7388;DHT22;3735;50.136;11.062;2024-03-08T15:01:17;19.50;99.90
7388;DHT22;3735;50.136;11.062;2024-03-08T15:03:50;19.30;99.90
7388;DHT22;3735;50.136;11.062;2024-03-08T15:06:16;18.70;99.90
7388;DHT22;3735;50.136;11.062;2024-03-08T15:08:46;18.40;99.90
7388;DHT22;3735;50.136;11.062;2024-03-08T15:11:13;18.10;99.90
7388;DHT22;3735;50.136;11.062;2024-03-08T15:13:47;17.80;99.90
7388;DHT22;3735;50.136;11.062;2024-03-08T15:16:16;18.00;99.90
7388;DHT22;3735;50.136;11.062;2024-03-08T15:18:44;18.00;99.90
7388;DHT22;3735;50.136;11.062;2024-03-08T15:21:14;17.30;99.90
7388;DHT22;3735;50.136;11.062;2024-03-08T15:23:47;16.60;99.90
7388;DHT22;3735;50.136;11.062;2024-03-08T15:26:16;16.30;99.90
7388;DHT22;3735;50.136;11.062;2024-03-08T15:28:43;16.10;99.90
7388;DHT22;3735;50.136;11.062;2024-03-08T15:31:10;15.70;99.90
7388;DHT22;3735;50.136;11.062;2024-03-08T15:33:38;15.60;99.90
7388;DHT22;3735;50.136;11.062;2024-03-08T15:36:14;15.40;99.90
7388;DHT22;3735;50.136;11.062;2024-03-08T15:38:42;15.20;99.90
7388;DHT22;3735;50.136;11.062;2024-03-08T15:41:16;15.30;99.90
7388;DHT22;3735;50.136;11.062;2024-03-08T15:43:43;15.30;99.90
7388;DHT22;3735;50.136;11.062;2024-03-08T15:46:10;15.30;99.90
7388;DHT22;3735;50.136;11.062;2024-03-08T15:48:37;15.10;99.90
7388;DHT22;3735;50.136;11.062;2024-03-08T15:51:05;14.50;99.90
7388;DHT22;3735;50.136;11.062;2024-03-08T15:53:35;13.30;99.90
7388;DHT22;3735;50.136;11.062;2024-03-08T15:56:02;12.10;99.90
7388;DHT22;3735;50.136;11.062;2024-03-08T15:58:31;11.40;99.90